createdAt,value
2018-05-24T00:00:25.300Z,58.44
2018-05-24T00:01:31.556Z,58.00
2018-05-24T00:02:37.859Z,58.37
2018-05-24T00:03:44.157Z,58.25
2018-05-24T00:04:50.875Z,58.22
2018-05-24T00:05:57.744Z,57.86
2018-05-24T00:07:03.861Z,57.52
2018-05-24T00:08:09.916Z,56.90
2018-05-24T00:09:15.993Z,56.74
2018-05-24T00:10:22.441Z,57.71
2018-05-24T00:11:28.402Z,57.43
2018-05-24T00:12:34.752Z,57.16
2018-05-24T00:13:41.068Z,56.88
2018-05-24T00:14:47.581Z,56.69
2018-05-24T00:15:53.625Z,56.24
2018-05-24T00:16:59.971Z,56.56
2018-05-24T00:18:06.282Z,57.19
2018-05-24T00:19:12.593Z,56.99
2018-05-24T00:20:18.326Z,57.23
2018-05-24T00:21:24.680Z,56.79
2018-05-24T00:22:30.933Z,57.11
2018-05-24T00:23:38.227Z,56.54
2018-05-24T00:24:44.829Z,56.89
2018-05-24T00:25:56.312Z,56.56
2018-05-24T00:27:02.618Z,56.30
2018-05-24T00:28:08.918Z,56.48
2018-05-24T00:29:15.126Z,56.36
2018-05-24T00:30:21.481Z,56.16
2018-05-24T00:31:27.755Z,56.43
2018-05-24T00:32:33.996Z,56.43
2018-05-24T00:33:40.278Z,56.14
2018-05-24T00:34:46.650Z,56.08
2018-05-24T00:35:53.340Z,56.55
2018-05-24T00:36:59.946Z,56.52
2018-05-24T00:38:06.306Z,56.43
2018-05-24T00:39:12.569Z,56.63
2018-05-24T00:40:18.905Z,56.34
2018-05-24T00:41:24.839Z,56.07
2018-05-24T00:42:31.099Z,55.75
2018-05-24T00:43:37.412Z,55.66
2018-05-24T00:44:43.757Z,55.98
2018-05-24T00:45:50.138Z,55.76
2018-05-24T00:46:56.420Z,55.34
2018-05-24T00:48:02.645Z,56.35
2018-05-24T00:49:08.946Z,56.01
2018-05-24T00:50:15.297Z,55.61
2018-05-24T00:51:21.570Z,55.48
2018-05-24T00:52:27.881Z,55.26
2018-05-24T00:53:44.793Z,55.61
2018-05-24T00:54:51.095Z,55.52
2018-05-24T00:55:57.087Z,55.69
2018-05-24T00:57:03.385Z,55.50
2018-05-24T00:58:18.776Z,55.74
2018-05-24T00:59:25.292Z,55.83
2018-05-24T01:00:32.299Z,55.43
2018-05-24T01:01:37.493Z,55.30
2018-05-24T01:02:43.886Z,55.42
2018-05-24T01:03:50.139Z,55.75
2018-05-24T01:04:56.506Z,55.63
2018-05-24T01:06:02.762Z,56.03
2018-05-24T01:07:09.030Z,55.76
2018-05-24T01:08:16.025Z,56.17
2018-05-24T01:09:23.183Z,55.78
2018-05-24T01:10:29.506Z,55.40
2018-05-24T01:11:35.449Z,56.17
2018-05-24T01:12:42.566Z,56.13
2018-05-24T01:13:48.605Z,56.26
2018-05-24T01:14:54.624Z,56.09
2018-05-24T01:16:00.944Z,56.18
2018-05-24T01:17:08.099Z,56.20
2018-05-24T01:18:14.326Z,55.87
2018-05-24T01:19:20.562Z,56.35
2018-05-24T01:20:26.889Z,57.29
2018-05-24T01:21:33.194Z,57.32
2018-05-24T01:22:39.525Z,57.70
2018-05-24T01:23:45.823Z,57.34
2018-05-24T01:24:52.133Z,57.60
2018-05-24T01:25:58.444Z,57.58
2018-05-24T01:27:05.047Z,57.20
2018-05-24T01:28:11.595Z,56.65
2018-05-24T01:29:17.870Z,56.34
2018-05-24T01:30:24.346Z,56.75
2018-05-24T01:31:30.609Z,56.44
2018-05-24T01:32:36.940Z,56.65
2018-05-24T01:33:43.387Z,56.54
2018-05-24T01:34:49.602Z,56.43
2018-05-24T01:35:55.877Z,56.89
2018-05-24T01:37:26.143Z,56.97
2018-05-24T01:38:32.142Z,56.65
2018-05-24T01:39:38.421Z,56.77
2018-05-24T01:40:44.753Z,56.95
2018-05-24T01:41:51.038Z,56.76
2018-05-24T01:42:57.262Z,56.81
2018-05-24T01:44:03.231Z,56.58
2018-05-24T01:45:09.326Z,56.65
2018-05-24T01:46:15.577Z,56.66
2018-05-24T01:47:21.889Z,56.49
2018-05-24T01:48:28.129Z,56.53
2018-05-24T01:49:34.408Z,57.14
2018-05-24T01:50:42.526Z,57.28
2018-05-24T01:51:48.782Z,57.89
2018-05-24T01:52:55.111Z,58.04
2018-05-24T01:54:02.265Z,57.84
2018-05-24T01:55:09.804Z,57.62
2018-05-24T01:56:16.105Z,57.52
2018-05-24T01:57:22.431Z,57.34
2018-05-24T01:58:28.692Z,57.43
2018-05-24T01:59:35.026Z,57.75
2018-05-24T02:00:41.875Z,58.17
2018-05-24T02:01:48.211Z,57.79
2018-05-24T02:02:54.472Z,57.45
2018-05-24T02:04:00.778Z,57.41
2018-05-24T02:05:06.815Z,57.46
2018-05-24T02:06:13.825Z,58.19
2018-05-24T02:07:20.211Z,58.36
2018-05-24T02:08:26.970Z,58.16
2018-05-24T02:09:33.922Z,58.07
2018-05-24T02:10:40.791Z,58.78
2018-05-24T02:11:47.219Z,59.14
2018-05-24T02:12:53.212Z,58.50
2018-05-24T02:13:59.548Z,58.43
2018-05-24T02:15:05.528Z,58.46
2018-05-24T02:16:11.888Z,58.36
2018-05-24T02:17:18.149Z,58.64
2018-05-24T02:18:24.344Z,58.95
2018-05-24T02:19:30.683Z,58.49
2018-05-24T02:20:36.700Z,58.53
2018-05-24T02:21:43.075Z,59.52
2018-05-24T02:22:49.436Z,59.36
2018-05-24T02:23:55.753Z,59.40
2018-05-24T02:25:02.248Z,59.29
2018-05-24T02:26:08.579Z,59.16
2018-05-24T02:27:15.474Z,59.09
2018-05-24T02:28:22.446Z,59.08
2018-05-24T02:29:33.066Z,59.10
2018-05-24T02:30:39.282Z,59.47
2018-05-24T02:31:45.561Z,59.83
2018-05-24T02:32:51.868Z,59.64
2018-05-24T02:33:58.149Z,59.53
2018-05-24T02:35:04.655Z,60.34
2018-05-24T02:36:11.012Z,60.43
2018-05-24T02:37:17.294Z,60.89
2018-05-24T02:38:23.661Z,60.35
2018-05-24T02:39:30.025Z,60.07
2018-05-24T02:40:36.330Z,60.48
2018-05-24T02:41:42.694Z,60.33
2018-05-24T02:42:48.955Z,60.17
2018-05-24T02:43:54.913Z,60.61
2018-05-24T02:45:01.216Z,61.22
2018-05-24T02:46:06.957Z,61.54
2018-05-24T02:47:14.067Z,61.21
2018-05-24T02:48:20.512Z,60.50
2018-05-24T02:49:26.828Z,60.18
2018-05-24T02:51:52.018Z,60.16
2018-05-24T02:52:58.682Z,60.16
2018-05-24T02:54:04.405Z,60.21
2018-05-24T02:55:10.375Z,60.07
2018-05-24T02:56:16.816Z,59.87
2018-05-24T02:57:23.799Z,60.08
2018-05-24T02:58:30.123Z,60.32
2018-05-24T02:59:36.469Z,60.83
2018-05-24T03:00:42.736Z,60.53
2018-05-24T03:01:49.256Z,60.49
2018-05-24T03:02:55.672Z,60.36
2018-05-24T03:04:02.025Z,60.35
2018-05-24T03:05:08.309Z,60.39
2018-05-24T03:06:14.607Z,60.32
2018-05-24T03:07:20.939Z,60.45
2018-05-24T03:08:26.917Z,60.45
2018-05-24T03:09:33.369Z,60.50
2018-05-24T03:10:39.657Z,60.67
2018-05-24T03:11:50.318Z,60.71
2018-05-24T03:13:03.482Z,60.70
2018-05-24T03:14:09.459Z,60.83
2018-05-24T03:15:16.469Z,60.89
2018-05-24T03:16:23.506Z,61.27
2018-05-24T03:17:29.783Z,61.36
2018-05-24T03:18:36.053Z,61.38
2018-05-24T03:19:42.632Z,61.35
2018-05-24T03:20:48.968Z,61.48
2018-05-24T03:21:55.301Z,61.52
2018-05-24T03:23:01.580Z,61.65
2018-05-24T03:24:07.885Z,61.95
2018-05-24T03:25:13.992Z,62.32
2018-05-24T03:26:20.108Z,62.33
2018-05-24T03:27:26.424Z,62.49
2018-05-24T03:28:33.655Z,62.80
2018-05-24T03:29:40.162Z,62.84
2018-05-24T03:30:46.500Z,62.77
2018-05-24T03:31:52.773Z,63.35
2018-05-24T03:33:00.568Z,63.27
2018-05-24T03:34:11.353Z,63.31
2018-05-24T03:35:17.578Z,63.85
2018-05-24T03:36:26.010Z,63.70
2018-05-24T03:37:33.017Z,63.49
2018-05-24T03:38:39.265Z,63.39
2018-05-24T03:39:45.610Z,63.49
2018-05-24T03:40:52.006Z,63.47
2018-05-24T03:41:58.364Z,63.69
2018-05-24T03:43:05.210Z,63.84
2018-05-24T03:44:12.264Z,63.87
2018-05-24T03:45:18.681Z,63.90
2018-05-24T03:46:24.741Z,63.85
2018-05-24T03:47:30.973Z,63.91
2018-05-24T03:48:37.274Z,64.19
2018-05-24T03:49:43.754Z,64.32
2018-05-24T03:50:50.097Z,64.50
2018-05-24T03:51:56.526Z,65.02
2018-05-24T03:53:02.826Z,65.04
2018-05-24T03:54:17.891Z,65.31
2018-05-24T03:55:24.087Z,65.64
2018-05-24T03:56:30.415Z,65.87
2018-05-24T03:57:36.723Z,65.94
2018-05-24T03:58:43.453Z,66.07
2018-05-24T04:00:09.554Z,66.02
2018-05-24T04:01:26.756Z,65.94
2018-05-24T04:02:44.272Z,66.01
2018-05-24T04:03:50.561Z,66.32
2018-05-24T04:04:57.592Z,66.47
2018-05-24T04:06:03.517Z,67.39
2018-05-24T04:07:09.784Z,67.82
2018-05-24T04:08:16.078Z,67.81
2018-05-24T04:09:22.415Z,67.71
2018-05-24T04:10:28.681Z,67.56
2018-05-24T04:11:35.046Z,67.84
2018-05-24T04:12:42.132Z,67.70
2018-05-24T04:13:48.416Z,67.73
2018-05-24T04:14:58.321Z,67.81
2018-05-24T04:16:04.538Z,67.97
2018-05-24T04:17:10.870Z,67.83
2018-05-24T04:18:17.162Z,67.91
2018-05-24T04:19:23.494Z,68.71
2018-05-24T04:20:30.252Z,68.68
2018-05-24T04:21:36.938Z,68.89
2018-05-24T04:22:43.592Z,69.66
2018-05-24T04:23:49.881Z,70.15
2018-05-24T04:24:56.311Z,69.81
2018-05-24T04:26:02.698Z,69.26
2018-05-24T04:27:09.027Z,69.50
2018-05-24T04:28:15.276Z,69.02
2018-05-24T04:29:21.503Z,68.71
2018-05-24T04:30:27.822Z,68.74
2018-05-24T04:31:34.162Z,68.80
2018-05-24T04:32:40.479Z,69.18
2018-05-24T04:33:47.144Z,69.24
2018-05-24T04:34:53.590Z,69.05
2018-05-24T04:35:59.811Z,68.98
2018-05-24T04:37:06.697Z,69.51
2018-05-24T04:38:12.975Z,69.23
2018-05-24T04:39:19.188Z,68.72
2018-05-24T04:40:25.424Z,69.84
2018-05-24T04:41:32.300Z,69.44
2018-05-24T04:42:38.586Z,68.99
2018-05-24T04:43:44.904Z,68.79
2018-05-24T04:44:51.726Z,69.28
2018-05-24T04:45:58.042Z,68.88
2018-05-24T04:47:04.016Z,68.90
2018-05-24T04:48:10.272Z,69.92
2018-05-24T04:49:16.580Z,69.31
2018-05-24T04:50:22.863Z,68.81
2018-05-24T04:51:29.174Z,68.02
2018-05-24T04:52:35.456Z,68.53
2018-05-24T04:53:41.706Z,68.37
2018-05-24T04:54:48.167Z,68.50
2018-05-24T04:55:55.990Z,68.62
2018-05-24T04:57:02.403Z,68.22
2018-05-24T04:58:08.719Z,68.11
2018-05-24T04:59:15.023Z,68.11
2018-05-24T05:00:21.314Z,67.85
2018-05-24T05:01:27.655Z,67.51
2018-05-24T05:02:33.959Z,67.04
2018-05-24T05:03:40.281Z,68.07
2018-05-24T05:04:46.595Z,67.57
2018-05-24T05:05:52.902Z,67.75
2018-05-24T05:06:59.186Z,67.62
2018-05-24T05:08:05.649Z,67.59
2018-05-24T05:09:12.127Z,66.99
2018-05-24T05:10:18.585Z,67.97
2018-05-24T05:11:25.556Z,67.59
2018-05-24T05:12:33.811Z,67.80
2018-05-24T05:13:42.849Z,68.08
2018-05-24T05:14:50.657Z,67.62
2018-05-24T05:15:58.951Z,67.97
2018-05-24T05:17:08.478Z,67.36
2018-05-24T05:18:16.978Z,67.60
2018-05-24T05:19:25.750Z,67.50
2018-05-24T05:20:33.821Z,67.44
2018-05-24T05:21:41.479Z,67.48
2018-05-24T05:22:50.454Z,67.43
2018-05-24T05:23:58.311Z,67.29
2018-05-24T05:25:05.543Z,67.76
2018-05-24T05:26:12.126Z,69.07
2018-05-24T05:27:18.181Z,68.58
2018-05-24T05:28:24.654Z,68.66
2018-05-24T05:29:31.074Z,68.36
2018-05-24T05:30:37.482Z,69.18
2018-05-24T05:31:43.920Z,69.91
2018-05-24T05:32:50.305Z,69.72
2018-05-24T05:33:56.641Z,70.96
2018-05-24T05:35:02.917Z,70.12
2018-05-24T05:36:09.307Z,70.09
2018-05-24T05:37:15.669Z,69.45
2018-05-24T05:38:27.849Z,69.07
2018-05-24T05:39:34.969Z,69.42
2018-05-24T05:40:41.427Z,70.30
2018-05-24T05:41:47.801Z,70.31
2018-05-24T05:42:54.157Z,70.29
2018-05-24T05:44:00.433Z,71.75
2018-05-24T05:45:06.836Z,71.10
2018-05-24T05:46:13.190Z,70.94
2018-05-24T05:47:19.488Z,71.05
2018-05-24T05:48:25.793Z,70.25
2018-05-24T05:49:32.089Z,70.38
2018-05-24T05:50:38.460Z,70.65
2018-05-24T05:51:44.758Z,71.21
2018-05-24T05:52:51.000Z,71.74
2018-05-24T05:53:57.379Z,70.90
2018-05-24T05:55:03.654Z,70.82
2018-05-24T05:56:09.889Z,70.95
2018-05-24T05:57:16.191Z,71.25
2018-05-24T05:58:22.598Z,71.85
2018-05-24T05:59:34.676Z,73.71
2018-05-24T06:00:40.877Z,79.52
2018-05-24T06:01:47.252Z,82.60
2018-05-24T06:02:53.763Z,84.34
2018-05-24T06:03:59.866Z,86.57
2018-05-24T06:05:05.776Z,87.95
2018-05-24T06:06:12.096Z,89.21
2018-05-24T06:07:18.438Z,90.66
2018-05-24T06:08:24.746Z,93.20
2018-05-24T06:09:31.087Z,94.91
2018-05-24T06:10:38.238Z,95.79
2018-05-24T06:11:44.533Z,94.94
2018-05-24T06:12:50.791Z,94.46
2018-05-24T06:13:57.323Z,95.26
2018-05-24T06:15:03.346Z,94.59
2018-05-24T06:16:09.729Z,95.95
2018-05-24T06:17:16.725Z,95.36
2018-05-24T06:18:22.990Z,95.20
2018-05-24T06:19:29.261Z,95.97
2018-05-24T06:20:40.520Z,97.33
2018-05-24T06:21:48.017Z,98.20
2018-05-24T06:22:54.257Z,98.66
2018-05-24T06:24:00.603Z,99.89
2018-05-24T06:25:06.922Z,98.95
2018-05-24T06:26:13.202Z,97.13
2018-05-24T06:27:19.201Z,96.72
2018-05-24T06:28:25.671Z,95.52
2018-05-24T06:29:32.397Z,96.44
2018-05-24T06:30:38.658Z,96.64
2018-05-24T06:31:44.971Z,98.70
2018-05-24T06:32:51.289Z,99.54
2018-05-24T06:33:57.613Z,98.25
2018-05-24T06:35:04.735Z,98.67
2018-05-24T06:36:11.024Z,100.00
2018-05-24T06:37:18.127Z,100.00
2018-05-24T06:38:26.628Z,99.17
2018-05-24T06:39:32.944Z,98.32
2018-05-24T06:40:39.309Z,98.46
2018-05-24T06:41:45.492Z,98.79
2018-05-24T06:42:51.846Z,98.88
2018-05-24T06:43:58.165Z,98.03
2018-05-24T06:45:04.740Z,98.13
2018-05-24T06:46:10.953Z,96.35
2018-05-24T06:47:17.355Z,95.95
2018-05-24T06:48:23.634Z,96.72
2018-05-24T06:49:30.571Z,97.65
2018-05-24T06:50:36.847Z,98.32
2018-05-24T06:51:43.355Z,97.75
2018-05-24T06:52:50.100Z,98.44
2018-05-24T06:53:56.984Z,98.44
2018-05-24T06:55:03.502Z,97.63
2018-05-24T06:56:09.774Z,97.66
2018-05-24T06:57:16.107Z,98.19
2018-05-24T06:58:22.372Z,98.54
2018-05-24T06:59:28.692Z,97.09
2018-05-24T07:00:35.908Z,97.20
2018-05-24T07:01:42.917Z,99.45
2018-05-24T07:02:49.146Z,99.09
2018-05-24T07:03:55.516Z,99.50
2018-05-24T07:05:02.638Z,100.00
2018-05-24T07:06:08.905Z,97.40
2018-05-24T07:07:15.229Z,99.93
2018-05-24T07:08:21.554Z,99.14
2018-05-24T07:09:28.714Z,99.51
2018-05-24T07:10:34.900Z,100.00
2018-05-24T07:11:42.040Z,100.00
2018-05-24T07:12:48.419Z,99.98
2018-05-24T07:13:54.754Z,99.91
2018-05-24T07:15:01.041Z,100.00
2018-05-24T07:16:07.801Z,99.03
2018-05-24T07:17:14.845Z,97.84
2018-05-24T07:18:21.100Z,96.30
2018-05-24T07:19:27.424Z,96.29
2018-05-24T07:20:33.754Z,96.63
2018-05-24T07:21:40.034Z,97.35
2018-05-24T07:22:46.349Z,97.58
2018-05-24T07:23:52.811Z,96.82
2018-05-24T07:25:00.268Z,95.19
2018-05-24T07:26:06.510Z,95.84
2018-05-24T07:27:13.156Z,97.49
2018-05-24T07:28:19.436Z,98.34
2018-05-24T07:29:25.769Z,96.53
2018-05-24T07:30:32.173Z,96.66
2018-05-24T07:31:38.474Z,97.24
2018-05-24T07:32:45.568Z,98.57
2018-05-24T07:33:52.034Z,98.66
2018-05-24T07:34:58.369Z,97.42
2018-05-24T07:36:04.641Z,97.25
2018-05-24T07:37:11.694Z,97.50
2018-05-24T07:38:18.656Z,97.22
2018-05-24T07:39:24.712Z,97.45
2018-05-24T07:40:31.040Z,97.36
2018-05-24T07:41:37.381Z,96.04
2018-05-24T07:42:44.310Z,96.67
2018-05-24T07:43:50.572Z,97.69
2018-05-24T07:44:56.974Z,95.80
2018-05-24T07:46:03.511Z,96.56
2018-05-24T07:47:09.841Z,96.07
2018-05-24T07:48:16.154Z,95.92
2018-05-24T07:49:22.403Z,94.48
2018-05-24T07:50:28.642Z,94.27
2018-05-24T07:51:34.954Z,94.51
2018-05-24T07:52:41.422Z,93.54
2018-05-24T07:53:47.676Z,94.21
2018-05-24T07:54:53.725Z,92.89
2018-05-24T07:56:00.203Z,91.39
2018-05-24T07:57:06.618Z,92.88
2018-05-24T07:58:12.847Z,95.12
2018-05-24T07:59:21.809Z,97.12
2018-05-24T08:00:28.169Z,95.68
2018-05-24T08:01:34.465Z,95.51
2018-05-24T08:02:41.044Z,95.30
2018-05-24T08:03:47.407Z,96.30
2018-05-24T08:04:53.931Z,96.18
2018-05-24T08:06:00.548Z,95.62
2018-05-24T08:07:06.798Z,94.97
2018-05-24T08:08:13.126Z,94.13
2018-05-24T08:09:19.413Z,94.00
2018-05-24T08:10:25.751Z,95.74
2018-05-24T08:11:31.990Z,96.32
2018-05-24T08:12:38.290Z,91.77
2018-05-24T08:13:44.582Z,91.47
2018-05-24T08:14:51.782Z,90.79
2018-05-24T08:15:58.348Z,92.22
2018-05-24T08:17:04.673Z,89.77
2018-05-24T08:18:10.966Z,91.43
2018-05-24T08:19:17.299Z,92.10
2018-05-24T08:20:23.592Z,89.46
2018-05-24T08:21:29.916Z,87.88
2018-05-24T08:22:36.307Z,88.52
2018-05-24T08:23:43.550Z,88.13
2018-05-24T08:24:50.544Z,87.06
2018-05-24T08:25:59.150Z,87.41
2018-05-24T08:27:07.380Z,87.77
2018-05-24T08:28:13.703Z,85.00
2018-05-24T08:29:19.994Z,84.37
2018-05-24T08:30:26.345Z,81.20
2018-05-24T08:31:32.616Z,84.83
2018-05-24T08:32:38.869Z,84.73
2018-05-24T08:33:45.899Z,85.66
2018-05-24T08:34:52.234Z,82.34
2018-05-24T08:35:58.504Z,82.23
2018-05-24T08:37:04.788Z,88.53
2018-05-24T08:38:11.122Z,80.68
2018-05-24T08:39:18.383Z,80.94
2018-05-24T08:40:25.404Z,83.31
2018-05-24T08:41:31.718Z,79.60
2018-05-24T08:42:37.642Z,81.10
2018-05-24T08:43:43.898Z,79.79
2018-05-24T08:44:50.185Z,81.18
2018-05-24T08:45:56.138Z,81.87
2018-05-24T08:47:02.487Z,77.01
2018-05-24T08:48:08.970Z,77.50
2018-05-24T08:49:15.282Z,78.80
2018-05-24T08:50:21.586Z,77.78
2018-05-24T08:51:27.921Z,78.22
2018-05-24T08:52:34.250Z,77.36
2018-05-24T08:53:40.513Z,74.91
2018-05-24T08:54:46.822Z,74.73
2018-05-24T08:55:53.410Z,76.04
2018-05-24T08:56:59.642Z,75.72
2018-05-24T08:58:05.887Z,76.00
2018-05-24T08:59:12.161Z,75.61
2018-05-24T09:00:18.505Z,76.67
2018-05-24T09:01:24.894Z,80.19
2018-05-24T09:02:31.324Z,77.30
2018-05-24T09:03:37.659Z,72.45
2018-05-24T09:04:43.986Z,73.25
2018-05-24T09:05:50.256Z,75.21
2018-05-24T09:06:56.609Z,74.04
2018-05-24T09:08:02.843Z,74.60
2018-05-24T09:09:14.290Z,71.25
2018-05-24T09:10:20.314Z,71.26
2018-05-24T09:11:26.976Z,70.82
2018-05-24T09:12:33.261Z,69.90
2018-05-24T09:13:39.604Z,73.14
2018-05-24T09:14:45.907Z,72.38
2018-05-24T09:15:52.219Z,72.66
2018-05-24T09:16:59.866Z,74.34
2018-05-24T09:18:06.951Z,70.23
2018-05-24T09:19:12.957Z,71.87
2018-05-24T09:20:19.303Z,68.93
2018-05-24T09:21:25.676Z,68.20
2018-05-24T09:22:31.996Z,68.59
2018-05-24T09:23:38.288Z,68.41
2018-05-24T09:24:44.585Z,67.40
2018-05-24T09:25:51.055Z,67.37
2018-05-24T09:26:57.338Z,67.86
2018-05-24T09:28:04.425Z,68.30
2018-05-24T09:29:13.726Z,67.74
2018-05-24T09:30:23.781Z,67.52
2018-05-24T09:31:29.977Z,68.56
2018-05-24T09:32:36.253Z,67.12
2018-05-24T09:33:42.476Z,67.30
2018-05-24T09:34:49.408Z,66.07
2018-05-24T09:35:55.744Z,65.11
2018-05-24T09:37:02.032Z,67.00
2018-05-24T09:38:08.336Z,67.54
2018-05-24T09:39:14.640Z,66.38
2018-05-24T09:40:20.972Z,65.26
2018-05-24T09:41:27.678Z,65.11
2018-05-24T09:42:34.011Z,65.42
2018-05-24T09:43:40.298Z,66.05
2018-05-24T09:44:46.622Z,65.74
2018-05-24T09:45:52.957Z,65.69
2018-05-24T09:46:59.200Z,67.02
2018-05-24T09:48:05.690Z,65.61
2018-05-24T09:49:11.968Z,65.60
2018-05-24T09:50:26.016Z,65.39
2018-05-24T09:51:32.197Z,65.35
2018-05-24T09:52:38.525Z,65.65
2018-05-24T09:53:44.713Z,65.70
2018-05-24T09:54:51.039Z,64.98
2018-05-24T09:55:57.330Z,64.15
2018-05-24T09:57:03.616Z,63.66
2018-05-24T09:58:09.961Z,67.89
2018-05-24T09:59:16.228Z,64.91
2018-05-24T10:00:23.754Z,64.10
2018-05-24T10:01:29.995Z,64.09
2018-05-24T10:02:36.186Z,62.74
2018-05-24T10:03:42.508Z,63.41
2018-05-24T10:04:48.816Z,63.65
2018-05-24T10:05:55.088Z,63.29
2018-05-24T10:07:01.377Z,64.68
2018-05-24T10:08:07.687Z,63.53
2018-05-24T10:09:13.965Z,63.98
2018-05-24T10:10:20.198Z,63.93
2018-05-24T10:11:26.521Z,63.31
2018-05-24T10:12:33.472Z,63.56
2018-05-24T10:13:39.728Z,63.72
2018-05-24T10:14:46.029Z,62.98
2018-05-24T10:15:52.379Z,62.95
2018-05-24T10:16:58.660Z,63.44
2018-05-24T10:18:05.599Z,65.25
2018-05-24T10:19:12.061Z,64.30
2018-05-24T10:20:18.522Z,62.81
2018-05-24T10:21:24.876Z,65.88
2018-05-24T10:22:31.864Z,63.52
2018-05-24T10:23:38.728Z,63.11
2018-05-24T10:24:45.020Z,63.47
2018-05-24T10:25:51.856Z,66.88
2018-05-24T10:26:58.150Z,64.72
2018-05-24T10:28:04.500Z,65.41
2018-05-24T10:29:10.809Z,64.06
2018-05-24T10:30:16.813Z,64.71
2018-05-24T10:31:23.113Z,64.00
2018-05-24T10:32:34.981Z,62.93
2018-05-24T10:33:41.409Z,63.46
2018-05-24T10:34:47.643Z,63.21
2018-05-24T10:35:53.984Z,64.80
2018-05-24T10:37:01.148Z,63.41
2018-05-24T10:38:07.049Z,62.42
2018-05-24T10:39:14.166Z,62.04
2018-05-24T10:40:20.443Z,61.81
2018-05-24T10:41:26.786Z,62.00
2018-05-24T10:42:33.006Z,61.26
2018-05-24T10:43:39.261Z,61.39
2018-05-24T10:44:45.490Z,62.27
2018-05-24T10:45:51.814Z,62.19
2018-05-24T10:46:58.127Z,63.97
2018-05-24T10:48:04.445Z,62.58
2018-05-24T10:49:11.636Z,62.50
2018-05-24T10:50:18.824Z,62.65
2018-05-24T10:51:24.841Z,61.88
2018-05-24T10:52:31.088Z,64.26
2018-05-24T10:53:41.729Z,61.12
2018-05-24T10:54:48.073Z,61.82
2018-05-24T10:55:55.019Z,60.96
2018-05-24T10:57:02.228Z,60.40
2018-05-24T10:58:08.492Z,59.40
2018-05-24T10:59:14.905Z,59.87
2018-05-24T11:00:21.204Z,60.06
2018-05-24T11:01:27.470Z,59.92
2018-05-24T11:02:33.698Z,60.02
2018-05-24T11:03:39.940Z,59.39
2018-05-24T11:04:46.252Z,58.94
2018-05-24T11:05:52.908Z,59.74
2018-05-24T11:06:59.224Z,59.22
2018-05-24T11:08:05.495Z,59.85
2018-05-24T11:09:11.717Z,59.72
2018-05-24T11:10:17.668Z,60.16
2018-05-24T11:11:23.950Z,60.70
2018-05-24T11:12:30.128Z,61.02
2018-05-24T11:13:36.256Z,62.88
2018-05-24T11:14:45.712Z,62.34
2018-05-24T11:15:51.902Z,59.77
2018-05-24T11:16:58.167Z,60.44
2018-05-24T11:18:04.457Z,60.17
2018-05-24T11:19:11.437Z,60.15
2018-05-24T11:20:18.260Z,60.31
2018-05-24T11:21:24.590Z,59.89
2018-05-24T11:22:31.025Z,60.25
2018-05-24T11:23:37.212Z,59.75
2018-05-24T11:24:43.606Z,60.52
2018-05-24T11:25:49.894Z,59.47
2018-05-24T11:26:56.213Z,59.71
2018-05-24T11:28:02.478Z,60.01
2018-05-24T11:29:08.717Z,59.07
2018-05-24T11:30:15.004Z,59.71
2018-05-24T11:31:21.346Z,59.72
2018-05-24T11:32:27.659Z,60.30
2018-05-24T11:33:33.970Z,60.51
2018-05-24T11:34:40.261Z,59.97
2018-05-24T11:35:55.450Z,59.99
2018-05-24T11:37:03.571Z,60.23
2018-05-24T11:38:10.041Z,61.73
2018-05-24T11:39:16.367Z,61.09
2018-05-24T11:40:22.686Z,60.63
2018-05-24T11:41:29.001Z,61.21
2018-05-24T11:42:35.291Z,60.49
2018-05-24T11:43:41.264Z,61.65
2018-05-24T11:44:47.601Z,61.51
2018-05-24T11:45:54.019Z,61.72
2018-05-24T11:47:01.444Z,61.76
2018-05-24T11:48:07.703Z,61.31
2018-05-24T11:49:14.012Z,63.93
2018-05-24T11:50:20.263Z,62.21
2018-05-24T11:51:26.533Z,62.85
2018-05-24T11:52:33.555Z,62.15
2018-05-24T11:53:39.837Z,62.76
2018-05-24T11:54:45.811Z,62.15
2018-05-24T11:55:52.181Z,62.26
2018-05-24T11:57:00.318Z,61.29
2018-05-24T11:58:06.516Z,62.58
2018-05-24T11:59:12.723Z,64.00
2018-05-24T12:00:18.973Z,62.72
2018-05-24T12:01:25.285Z,61.91
2018-05-24T12:02:31.568Z,62.06
2018-05-24T12:03:37.782Z,61.75
2018-05-24T12:04:44.252Z,61.13
2018-05-24T12:05:50.557Z,61.77
2018-05-24T12:06:56.831Z,62.04
2018-05-24T12:08:03.220Z,62.08
2018-05-24T12:09:09.057Z,61.23
2018-05-24T12:10:15.320Z,61.93
2018-05-24T12:11:21.625Z,61.42
2018-05-24T12:12:28.002Z,61.84
2018-05-24T12:13:34.314Z,61.56
2018-05-24T12:14:40.588Z,59.46
2018-05-24T12:15:47.573Z,59.99
2018-05-24T12:16:53.963Z,61.28
2018-05-24T12:18:02.793Z,61.96
2018-05-24T12:19:09.001Z,60.57
2018-05-24T12:20:15.277Z,60.86
2018-05-24T12:21:21.249Z,63.06
2018-05-24T12:22:27.570Z,65.07
2018-05-24T12:23:34.345Z,62.41
2018-05-24T12:24:40.569Z,61.57
2018-05-24T12:25:48.594Z,61.74
2018-05-24T12:26:55.066Z,61.28
2018-05-24T12:28:01.493Z,60.95
2018-05-24T12:29:09.440Z,61.08
2018-05-24T12:30:15.915Z,61.10
2018-05-24T12:31:22.234Z,59.92
2018-05-24T12:32:30.503Z,62.44
2018-05-24T12:33:36.599Z,58.60
2018-05-24T12:34:42.911Z,59.18
2018-05-24T12:35:49.132Z,58.94
2018-05-24T12:36:56.154Z,58.43
2018-05-24T12:38:02.448Z,59.37
2018-05-24T12:39:14.878Z,58.60
2018-05-24T12:40:22.580Z,60.67
2018-05-24T12:41:28.889Z,60.00
2018-05-24T12:42:35.437Z,58.70
2018-05-24T12:43:42.310Z,58.65
2018-05-24T12:44:49.131Z,58.19
2018-05-24T12:45:55.438Z,57.65
2018-05-24T12:47:01.684Z,58.33
2018-05-24T12:48:07.856Z,58.61
2018-05-24T12:49:14.201Z,59.40
2018-05-24T12:50:21.234Z,58.61
2018-05-24T12:51:27.161Z,57.52
2018-05-24T12:52:33.449Z,57.79
2018-05-24T12:53:39.712Z,57.32
2018-05-24T12:54:45.933Z,57.50
2018-05-24T12:55:52.276Z,57.76
2018-05-24T12:56:58.389Z,57.46
2018-05-24T12:58:04.665Z,57.01
2018-05-24T12:59:11.014Z,61.61
2018-05-24T13:00:17.289Z,58.03
2018-05-24T13:01:23.497Z,57.01
2018-05-24T13:02:29.727Z,56.94
2018-05-24T13:03:36.618Z,56.26
2018-05-24T13:04:43.889Z,56.35
2018-05-24T13:05:50.172Z,56.77
2018-05-24T13:06:56.433Z,59.14
2018-05-24T13:08:02.753Z,58.10
2018-05-24T13:09:09.931Z,57.16
2018-05-24T13:10:16.577Z,57.40
2018-05-24T13:11:22.547Z,56.50
2018-05-24T13:12:28.776Z,57.00
2018-05-24T13:13:35.184Z,58.17
2018-05-24T13:14:42.011Z,57.29
2018-05-24T13:15:48.334Z,56.91
2018-05-24T13:16:54.411Z,56.59
2018-05-24T13:18:00.895Z,57.24
2018-05-24T13:19:06.983Z,56.80
2018-05-24T13:20:13.302Z,58.00
2018-05-24T13:21:19.272Z,57.01
2018-05-24T13:22:25.398Z,57.83
2018-05-24T13:23:31.480Z,56.60
2018-05-24T13:24:37.710Z,56.33
2018-05-24T13:25:44.057Z,55.49
2018-05-24T13:26:50.612Z,55.62
2018-05-24T13:27:57.174Z,56.73
2018-05-24T13:29:03.184Z,55.77
2018-05-24T13:30:09.249Z,57.91
2018-05-24T13:31:15.976Z,56.72
2018-05-24T13:32:22.009Z,56.26
2018-05-24T13:33:28.281Z,56.22
2018-05-24T13:34:34.586Z,55.16
2018-05-24T13:35:40.809Z,55.37
2018-05-24T13:36:48.397Z,56.42
2018-05-24T13:37:54.498Z,55.91
2018-05-24T13:39:00.470Z,54.65
2018-05-24T13:40:06.484Z,55.29
2018-05-24T13:41:12.772Z,56.69
2018-05-24T13:42:26.074Z,55.75
2018-05-24T13:43:32.000Z,56.28
2018-05-24T13:44:37.981Z,55.38
2018-05-24T13:45:44.329Z,56.25
2018-05-24T13:46:50.587Z,55.57
2018-05-24T13:47:56.713Z,55.77
2018-05-24T13:49:03.042Z,54.93
2018-05-24T13:50:09.039Z,55.48
2018-05-24T13:51:15.327Z,57.35
2018-05-24T13:52:21.417Z,54.39
2018-05-24T13:53:27.479Z,54.72
2018-05-24T13:54:33.757Z,55.25
2018-05-24T13:55:40.417Z,54.80
2018-05-24T13:56:46.581Z,54.59
2018-05-24T13:57:52.355Z,55.35
2018-05-24T13:58:58.732Z,54.79
2018-05-24T14:00:04.077Z,55.51
2018-05-24T14:01:10.089Z,56.30
2018-05-24T14:02:16.216Z,55.63
2018-05-24T14:03:22.613Z,56.04
2018-05-24T14:04:28.931Z,55.08
2018-05-24T14:05:35.012Z,54.73
2018-05-24T14:06:42.132Z,55.14
2018-05-24T14:07:48.216Z,55.08
2018-05-24T14:08:55.989Z,55.01
2018-05-24T14:10:02.010Z,54.17
2018-05-24T14:11:08.104Z,54.05
2018-05-24T14:12:15.088Z,55.30
2018-05-24T14:13:21.380Z,54.88
2018-05-24T14:14:27.692Z,55.03
2018-05-24T14:15:33.967Z,54.18
2018-05-24T14:16:39.981Z,53.87
2018-05-24T14:17:46.223Z,55.22
2018-05-24T14:18:52.436Z,54.92
2018-05-24T14:19:58.440Z,54.34